createdAt,value
2023-02-14T00:02:50.964Z,45
2023-02-14T00:08:38.205Z,45
2023-02-14T00:14:12.780Z,90
2023-02-14T00:19:37.930Z,45
2023-02-14T00:25:21.712Z,45
2023-02-14T00:30:35.124Z,45
2023-02-14T00:36:15.793Z,45
2023-02-14T00:41:53.208Z,45
2023-02-14T00:47:35.207Z,45
2023-02-14T00:52:44.269Z,45
2023-02-14T00:58:22.650Z,45
2023-02-14T01:03:57.749Z,45
2023-02-14T01:09:39.579Z,45
2023-02-14T01:15:15.965Z,45
2023-02-14T01:20:29.472Z,45
2023-02-14T01:26:08.536Z,45
2023-02-14T01:31:48.261Z,90
2023-02-14T01:37:07.930Z,45
2023-02-14T01:42:59.927Z,45
2023-02-14T01:48:14.375Z,45
2023-02-14T01:53:48.417Z,315
2023-02-14T01:59:31.663Z,315
2023-02-14T02:04:45.968Z,315
2023-02-14T02:10:31.141Z,315
2023-02-14T02:16:06.775Z,315
2023-02-14T02:21:46.038Z,45
2023-02-14T02:27:01.334Z,45
2023-02-14T02:32:37.016Z,315
2023-02-14T02:37:58.466Z,315
2023-02-14T02:43:32.930Z,315
2023-02-14T02:49:04.457Z,315
2023-02-14T02:55:03.006Z,315
2023-02-14T03:00:31.536Z,315
2023-02-14T03:05:47.672Z,315
2023-02-14T03:11:24.507Z,135
2023-02-14T03:16:47.929Z,90
2023-02-14T03:22:20.188Z,90
2023-02-14T03:27:54.490Z,90
2023-02-14T03:33:42.768Z,90
2023-02-14T03:39:03.695Z,90
2023-02-14T03:44:35.766Z,90
2023-02-14T03:50:27.620Z,90
2023-02-14T03:55:35.758Z,45
2023-02-14T04:01:06.539Z,45
2023-02-14T04:06:50.285Z,45
2023-02-14T04:12:37.894Z,90
2023-02-14T04:17:57.192Z,67.5
2023-02-14T04:23:27.814Z,67.5
2023-02-14T04:29:14.567Z,45
2023-02-14T04:34:46.866Z,90
2023-02-14T04:40:03.916Z,45
2023-02-14T04:45:33.657Z,45
2023-02-14T04:51:27.621Z,45
2023-02-14T04:56:56.788Z,45
2023-02-14T05:02:09.794Z,45
2023-02-14T05:07:40.852Z,45
2023-02-14T05:13:28.019Z,90
2023-02-14T05:19:00.113Z,90
2023-02-14T05:24:26.293Z,90
2023-02-14T05:30:05.601Z,112.5
2023-02-14T05:35:44.914Z,45
2023-02-14T05:40:55.349Z,45
2023-02-14T05:46:42.842Z,45
2023-02-14T05:52:24.123Z,45
2023-02-14T05:57:30.132Z,90
2023-02-14T06:03:01.665Z,45
2023-02-14T06:08:56.968Z,45
2023-02-14T06:14:28.828Z,45
2023-02-14T06:20:06.228Z,45
2023-02-14T06:25:39.153Z,90
2023-02-14T06:30:51.445Z,45
2023-02-14T06:36:26.889Z,45
2023-02-14T06:42:14.547Z,90
2023-02-14T06:47:33.962Z,45
2023-02-14T06:53:14.334Z,90
2023-02-14T06:58:45.135Z,67.5
2023-02-14T07:04:05.308Z,67.5
2023-02-14T07:09:56.303Z,90
2023-02-14T07:15:26.153Z,45
2023-02-14T07:20:55.022Z,90
2023-02-14T07:26:11.935Z,45
2023-02-14T07:32:08.057Z,45
2023-02-14T07:37:42.466Z,45
2023-02-14T07:42:50.739Z,90
2023-02-14T07:48:23.376Z,90
2023-02-14T07:54:17.677Z,45
2023-02-14T07:59:34.588Z,90
2023-02-14T08:05:08.647Z,45
2023-02-14T08:10:59.742Z,135
2023-02-14T08:16:17.636Z,90
2023-02-14T08:21:40.044Z,67.5
2023-02-14T08:27:24.988Z,67.5
2023-02-14T08:32:47.117Z,90
2023-02-14T08:38:21.295Z,45
2023-02-14T08:44:00.408Z,45
2023-02-14T08:49:23.832Z,45
2023-02-14T08:54:57.399Z,45
2023-02-14T09:00:27.651Z,90
2023-02-14T09:06:25.000Z,45
2023-02-14T09:11:52.750Z,45
2023-02-14T09:17:07.637Z,90
2023-02-14T09:23:00.173Z,90
2023-02-14T09:28:21.404Z,90
2023-02-14T09:33:48.087Z,45
2023-02-14T09:39:31.605Z,90
2023-02-14T09:45:06.769Z,45
2023-02-14T09:50:42.293Z,67.5
2023-02-14T09:56:20.043Z,90
2023-02-14T10:01:54.487Z,0
2023-02-14T10:07:17.376Z,0
2023-02-14T10:12:40.260Z,315
2023-02-14T10:18:06.940Z,45
2023-02-14T10:24:01.149Z,45
2023-02-14T10:29:11.835Z,45
2023-02-14T10:34:55.444Z,45
2023-02-14T10:40:39.699Z,45
2023-02-14T10:46:09.666Z,45
2023-02-14T10:51:27.205Z,67.5
2023-02-14T10:57:21.638Z,45
2023-02-14T11:02:56.898Z,0
2023-02-14T11:08:22.148Z,315
2023-02-14T11:13:51.055Z,90
2023-02-14T11:19:17.065Z,90
2023-02-14T11:24:55.442Z,135
2023-02-14T11:30:37.044Z,135
2023-02-14T11:36:10.300Z,112.5
2023-02-14T11:41:38.966Z,315
2023-02-14T11:46:55.656Z,45
2023-02-14T11:52:28.604Z,135
2023-02-14T11:58:15.035Z,45
2023-02-14T12:03:38.050Z,45
2023-02-14T12:09:15.797Z,45
2023-02-14T12:15:01.002Z,45
2023-02-14T12:20:19.129Z,0
2023-02-14T12:26:07.915Z,315
2023-02-14T12:31:32.884Z,135
2023-02-14T12:37:15.010Z,315
2023-02-14T12:42:25.299Z,315
2023-02-14T12:48:25.648Z,0
2023-02-14T12:53:49.101Z,90
2023-02-14T12:59:12.866Z,315
2023-02-14T13:04:45.803Z,315
2023-02-14T13:10:21.778Z,0
2023-02-14T13:16:03.632Z,315
2023-02-14T13:21:21.781Z,315
2023-02-14T13:27:20.478Z,315
2023-02-14T13:32:45.593Z,315
2023-02-14T13:38:21.779Z,315
2023-02-14T13:43:45.364Z,315
2023-02-14T13:49:30.996Z,315
2023-02-14T13:55:08.842Z,315
2023-02-14T14:00:58.303Z,135
2023-02-14T14:06:17.273Z,45
2023-02-14T14:11:45.486Z,315
2023-02-14T14:17:49.251Z,45
2023-02-14T14:23:11.926Z,45
2023-02-14T14:28:58.805Z,315
2023-02-14T14:34:27.202Z,90
2023-02-14T14:39:45.693Z,0
2023-02-14T14:45:38.447Z,315
2023-02-14T14:51:04.835Z,270
2023-02-14T14:56:52.239Z,315
2023-02-14T15:02:19.038Z,315
2023-02-14T15:07:39.738Z,315
2023-02-14T15:13:23.408Z,315
2023-02-14T15:18:53.073Z,315
2023-02-14T15:24:27.126Z,315
2023-02-14T15:30:22.580Z,315
2023-02-14T15:35:39.520Z,135
2023-02-14T15:41:20.588Z,315
2023-02-14T15:46:51.429Z,315
2023-02-14T15:52:37.141Z,315
2023-02-14T15:58:02.156Z,270
2023-02-14T16:03:40.029Z,270
2023-02-14T16:09:06.870Z,270
2023-02-14T16:14:42.457Z,315
2023-02-14T16:20:11.460Z,315
2023-02-14T16:25:41.046Z,315
2023-02-14T16:31:17.328Z,315
2023-02-14T16:37:03.678Z,315
2023-02-14T16:42:29.906Z,315
2023-02-14T16:47:46.568Z,315
2023-02-14T16:53:34.065Z,315
2023-02-14T16:58:56.388Z,315
2023-02-14T17:04:51.778Z,315
2023-02-14T17:10:06.934Z,315
2023-02-14T17:15:59.442Z,315
2023-02-14T17:21:33.216Z,315
2023-02-14T17:26:58.562Z,315
2023-02-14T17:37:51.219Z,315
2023-02-14T17:43:21.459Z,315
2023-02-14T17:48:53.868Z,315
2023-02-14T17:54:27.175Z,315
2023-02-14T18:00:15.576Z,315
2023-02-14T18:05:33.963Z,315
2023-02-14T18:11:03.437Z,45
2023-02-14T18:16:40.915Z,45
2023-02-14T18:22:13.470Z,45
2023-02-14T18:28:02.278Z,45
2023-02-14T18:33:20.693Z,45
2023-02-14T18:38:54.903Z,45
2023-02-14T18:44:21.386Z,0
2023-02-14T18:50:00.139Z,315
2023-02-14T18:55:26.937Z,315
2023-02-14T19:01:06.804Z,315
2023-02-14T19:06:33.885Z,315
2023-02-14T19:12:05.022Z,315
2023-02-14T19:17:37.323Z,315
2023-02-14T19:23:22.870Z,315
2023-02-14T19:29:08.457Z,315
2023-02-14T19:34:34.427Z,315
2023-02-14T19:40:07.671Z,315
2023-02-14T19:45:23.579Z,45
2023-02-14T19:50:58.739Z,45
2023-02-14T19:56:30.041Z,90
2023-02-14T20:02:25.970Z,90
2023-02-14T20:07:52.090Z,90
2023-02-14T20:13:07.816Z,45
2023-02-14T20:18:53.984Z,45
2023-02-14T20:24:13.745Z,45
2023-02-14T20:30:01.604Z,135
2023-02-14T20:35:42.806Z,90
2023-02-14T20:41:14.522Z,135
2023-02-14T20:46:22.626Z,90
2023-02-14T20:52:09.755Z,90
2023-02-14T20:57:33.416Z,315
2023-02-14T21:03:27.068Z,315
2023-02-14T21:08:53.849Z,45
2023-02-14T21:14:10.232Z,315
2023-02-14T21:20:03.809Z,315
2023-02-14T21:25:16.297Z,90
2023-02-14T21:30:58.728Z,45
2023-02-14T21:36:30.996Z,135
2023-02-14T21:42:08.887Z,45
2023-02-14T21:47:27.602Z,45
2023-02-14T21:53:08.203Z,90
2023-02-14T21:58:52.538Z,45
2023-02-14T22:04:29.641Z,0
2023-02-14T22:09:39.484Z,45
2023-02-14T22:15:33.502Z,0
2023-02-14T22:21:06.782Z,315
2023-02-14T22:26:24.986Z,315
2023-02-14T22:31:47.637Z,315
2023-02-14T22:37:26.624Z,315
2023-02-14T22:43:01.084Z,315
2023-02-14T22:48:36.098Z,315
2023-02-14T22:54:19.483Z,315
2023-02-14T22:59:29.608Z,315
2023-02-14T23:05:21.943Z,0
2023-02-14T23:10:59.686Z,0
2023-02-14T23:16:28.300Z,0
2023-02-14T23:21:47.370Z,90
2023-02-14T23:27:25.771Z,315
2023-02-14T23:32:52.457Z,315
2023-02-14T23:44:12.028Z,135
2023-02-14T23:49:41.879Z,315
2023-02-14T23:55:04.275Z,90
